Sede Nova, Brazil
Current Conditions -  °F | °C
As of 7:00 PM on Sunday 23 Nov 2014 (Local Time) from SBCH Reporting Station
Clear Clear  
Wind Chill: 81°   Ceiling: Unl
Heat Index: 83°   Visibility: 6mi
Dew Point: 68°   Wind: 5mph
Humidity: 65%   Direction: 240°WSW
Pressure: 29.91"   Gusts: NA
Location:  27.64°S, 53.94°W
Report Text: SBCH 232100Z 24004KT CAVOK 27/20 Q1013
Loading
Personal Weather Stations






























Interactive Weather Map New forecast layout! Learn more

10-Day Weather Forecast

Advertisements
Track Severe Weather on mobile